Piney Grove, Arkansas
Current Conditions -  °F | °C
As of 9:56 AM on Friday 28 Nov 2014 (Local Time) from KADF Reporting Station
Clear Clear  
Wind Chill: 39°   Ceiling: Unl
Heat Index: 42°   Visibility: 10mi
Dew Point: 35°   Wind: 5mph
Humidity: 76%   Direction: 140°SE
Pressure: 30.35"   Gusts: NA
Location:  34.0586°N, 93.5318°W
Report Text: KADF 281556Z AUTO 14004KT 10SM CLR 06/02 A3035 RMK AO2 T00550016 SLP295
Loading
Personal Weather Stations






























Interactive Weather Map New forecast layout! Learn more

10-Day Weather Forecast

Advertisements
Track Severe Weather on mobile